Time;durP1;ratioP1;P1;durP2;ratioP2;P2;SDS_P1;SDS_P2;PMS_P1;PMS_P2;Temp;Humidity;BMP_temperature;BMP_pressure;BME280_temperature;BME280_humidity;BME280_pressure;Samples;Min_cycle;Max_cycle;Signal;HPM_P1;HPM_P2
2023/06/17 00:00:11;;;;;;;7.63;6.90;;;16.60;79.00;;;;;;6207149;28;20049;-86
2023/06/17 00:03:14;;;;;;;8.65;6.90;;;16.60;78.50;;;;;;6209689;28;20057;-85
2023/06/17 00:06:16;;;;;;;8.43;6.75;;;16.60;78.50;;;;;;6204947;28;20046;-84
2023/06/17 00:09:18;;;;;;;7.15;6.03;;;16.50;79.00;;;;;;6210392;28;20134;-86
2023/06/17 00:12:21;;;;;;;7.35;5.95;;;16.40;79.40;;;;;;6206212;28;20065;-84
2023/06/17 00:15:23;;;;;;;8.25;6.22;;;16.30;79.80;;;;;;6203292;28;20050;-84
2023/06/17 00:18:26;;;;;;;6.60;5.95;;;16.30;80.50;;;;;;6206808;28;20034;-83
2023/06/17 00:21:38;;;;;;;7.05;6.35;;;16.20;80.70;;;;;;6201594;28;20065;-85
2023/06/17 00:24:39;;;;;;;8.38;6.35;;;16.20;81.10;;;;;;6199009;28;20473;-84
2023/06/17 00:27:41;;;;;;;7.78;6.95;;;16.20;81.30;;;;;;6199319;28;20069;-84
2023/06/17 00:30:46;;;;;;;8.43;6.13;;;16.10;81.50;;;;;;6201422;28;20045;-84
2023/06/17 00:33:49;;;;;;;9.95;6.60;;;16.00;82.10;;;;;;6202932;28;20505;-83
2023/06/17 00:36:51;;;;;;;7.25;6.53;;;16.00;82.70;;;;;;6205134;28;20069;-84
2023/06/17 00:39:53;;;;;;;8.20;7.28;;;15.90;83.20;;;;;;6205103;28;20497;-84
2023/06/17 00:42:55;;;;;;;8.40;6.78;;;15.90;83.60;;;;;;6206843;28;20529;-84
2023/06/17 00:45:56;;;;;;;7.70;6.95;;;15.90;84.60;;;;;;6203512;28;20397;-84
2023/06/17 00:49:00;;;;;;;8.45;7.18;;;15.80;84.20;;;;;;6203295;28;20532;-85
2023/06/17 00:52:04;;;;;;;9.15;7.18;;;15.70;85.00;;;;;;6203323;28;20045;-85
2023/06/17 00:55:08;;;;;;;9.45;6.72;;;15.70;85.20;;;;;;6204061;28;20096;-83
2023/06/17 00:58:11;;;;;;;6.90;6.30;;;15.60;85.50;;;;;;6209060;28;20037;-82
2023/06/17 01:01:13;;;;;;;13.48;9.15;;;15.50;86.10;;;;;;6206749;28;20051;-84
2023/06/17 01:04:16;;;;;;;9.65;8.75;;;15.50;86.60;;;;;;6207667;28;20450;-85
2023/06/17 01:07:27;;;;;;;7.93;6.85;;;15.50;86.90;;;;;;6202513;28;20064;-84
2023/06/17 01:10:35;;;;;;;7.05;6.35;;;15.40;87.10;;;;;;6202887;28;20064;-83
2023/06/17 01:13:37;;;;;;;10.02;6.57;;;15.40;87.40;;;;;;6203144;28;20057;-84
2023/06/17 01:16:42;;;;;;;10.02;7.57;;;15.20;87.80;;;;;;6204485;28;20053;-84
2023/06/17 01:19:48;;;;;;;8.20;6.93;;;15.00;88.30;;;;;;6207778;28;20162;-83
2023/06/17 01:23:15;;;;;;;8.57;6.80;;;14.90;88.90;;;;;;6209168;28;20220;-85
2023/06/17 01:26:19;;;;;;;7.00;6.30;;;14.80;90.00;;;;;;6184039;28;20037;-85
2023/06/17 01:29:22;;;;;;;13.30;9.23;;;14.70;90.00;;;;;;6199396;28;20404;-84
2023/06/17 01:32:24;;;;;;;9.50;8.45;;;14.70;90.20;;;;;;6200438;28;20073;-83
2023/06/17 01:35:33;;;;;;;8.48;7.68;;;14.60;90.60;;;;;;6202808;28;20093;-84
2023/06/17 01:42:00;;;;;;;8.00;7.22;;;14.60;90.90;;;;;;6210885;28;20064;-86
2023/06/17 01:45:05;;;;;;;8.20;6.93;;;14.50;91.00;;;;;;6218858;28;20057;-87
2023/06/17 01:48:07;;;;;;;8.25;6.95;;;14.60;91.20;;;;;;6217096;28;20057;-82
2023/06/17 01:51:09;;;;;;;7.43;6.72;;;14.60;91.20;;;;;;6210342;28;20050;-84
2023/06/17 01:54:11;;;;;;;9.98;7.00;;;14.50;91.30;;;;;;6208943;28;20385;-85
2023/06/17 01:57:14;;;;;;;8.40;6.88;;;14.50;91.40;;;;;;6209618;28;20378;-85
2023/06/17 02:00:17;;;;;;;8.35;7.22;;;14.40;91.60;;;;;;6208056;28;20045;-85
2023/06/17 02:03:18;;;;;;;8.65;7.03;;;14.40;91.80;;;;;;6215236;28;20066;-85
2023/06/17 02:06:20;;;;;;;13.35;8.63;;;14.50;91.90;;;;;;6209585;28;20042;-85
2023/06/17 02:09:22;;;;;;;15.30;8.25;;;14.40;91.70;;;;;;6216117;28;20050;-84
2023/06/17 02:12:25;;;;;;;14.57;8.65;;;14.30;91.70;;;;;;6212787;28;20058;-84
2023/06/17 02:15:27;;;;;;;9.57;7.85;;;14.10;92.10;;;;;;6214027;28;20085;-85
2023/06/17 02:18:28;;;;;;;7.68;6.68;;;14.10;92.30;;;;;;6212609;28;20045;-85
2023/06/17 02:21:30;;;;;;;7.45;6.57;;;14.10;92.40;;;;;;6208564;28;20042;-85
2023/06/17 02:24:32;;;;;;;7.80;7.10;;;14.20;92.40;;;;;;6211468;28;20055;-86
2023/06/17 02:27:35;;;;;;;7.38;6.68;;;14.20;92.30;;;;;;6209340;28;20073;-85
2023/06/17 02:30:37;;;;;;;7.45;6.75;;;14.10;92.40;;;;;;6212962;28;20057;-85
2023/06/17 02:33:39;;;;;;;9.27;6.90;;;14.10;92.60;;;;;;6208098;28;20804;-84
2023/06/17 02:36:41;;;;;;;8.77;7.40;;;14.10;92.50;;;;;;6213554;28;20500;-85
2023/06/17 02:39:43;;;;;;;8.38;7.63;;;13.90;92.60;;;;;;6204102;28;20054;-85
2023/06/17 02:42:46;;;;;;;9.80;7.50;;;13.90;93.10;;;;;;6205220;28;20057;-84
2023/06/17 02:45:48;;;;;;;7.18;6.38;;;13.90;93.00;;;;;;6204400;28;20042;-85
2023/06/17 02:48:50;;;;;;;8.75;7.85;;;13.90;93.00;;;;;;6203809;28;20528;-85
2023/06/17 02:51:52;;;;;;;8.50;7.53;;;13.90;93.00;;;;;;6207274;28;20064;-86
2023/06/17 03:02:42;;;;;;;9.00;7.50;;;13.80;93.30;;;;;;6180563;28;20063;-85
2023/06/17 03:05:44;;;;;;;9.95;7.32;;;13.60;93.40;;;;;;6158694;28;20104;-84
2023/06/17 03:08:46;;;;;;;8.55;7.75;;;13.60;93.50;;;;;;6209088;28;20536;-84
2023/06/17 03:11:48;;;;;;;7.63;6.93;;;13.40;93.60;;;;;;6206947;28;20057;-85
2023/06/17 03:14:58;;;;;;;8.02;6.32;;;13.30;93.80;;;;;;6210150;28;20126;-84
2023/06/17 03:18:00;;;;;;;8.75;7.88;;;13.20;93.90;;;;;;6207199;28;20046;-84
2023/06/17 03:21:02;;;;;;;10.50;7.47;;;13.10;94.00;;;;;;6205590;28;20671;-84
2023/06/17 03:24:04;;;;;;;9.13;7.97;;;13.00;94.20;;;;;;6208557;28;20041;-84
2023/06/17 03:27:06;;;;;;;7.47;6.82;;;13.00;94.40;;;;;;6208867;28;20064;-83
2023/06/17 03:30:11;;;;;;;8.75;7.82;;;13.00;94.50;;;;;;6208161;28;20066;-85
2023/06/17 03:33:13;;;;;;;9.68;8.32;;;13.00;94.80;;;;;;6200696;28;20069;-81
2023/06/17 03:36:16;;;;;;;9.00;8.00;;;13.00;94.80;;;;;;6203512;28;20053;-79
2023/06/17 03:39:18;;;;;;;9.18;8.00;;;13.00;94.70;;;;;;6205013;28;20046;-81
2023/06/17 03:42:19;;;;;;;8.05;7.22;;;12.90;94.80;;;;;;6206718;28;20042;-80
2023/06/17 03:45:23;;;;;;;9.52;8.23;;;12.90;95.00;;;;;;6205771;28;20054;-80
2023/06/17 03:48:24;;;;;;;10.07;7.97;;;12.90;95.10;;;;;;6205627;28;20050;-80
2023/06/17 03:51:26;;;;;;;7.32;6.63;;;12.90;95.20;;;;;;6199230;28;20049;-81
2023/06/17 03:54:28;;;;;;;10.45;8.95;;;12.90;95.20;;;;;;6200117;28;20046;-81
2023/06/17 03:57:30;;;;;;;9.70;7.70;;;13.00;95.40;;;;;;6201088;28;20060;-81
2023/06/17 04:00:33;;;;;;;8.98;7.65;;;13.10;95.40;;;;;;6202958;28;20061;-81
2023/06/17 04:03:34;;;;;;;10.93;9.80;;;13.20;95.50;;;;;;6204590;28;20038;-80
2023/06/17 04:06:36;;;;;;;9.90;7.78;;;13.30;95.40;;;;;;6202885;28;20192;-78
2023/06/17 04:09:38;;;;;;;8.95;7.43;;;13.40;95.40;;;;;;6203174;28;20116;-80
2023/06/17 04:12:42;;;;;;;9.25;8.13;;;13.50;95.40;;;;;;6205332;28;20046;-81
2023/06/17 04:15:46;;;;;;;8.23;7.38;;;13.70;95.40;;;;;;6205274;28;20041;-81
2023/06/17 04:18:48;;;;;;;8.05;6.18;;;14.00;95.40;;;;;;6193356;28;20405;-80
2023/06/17 04:21:49;;;;;;;7.95;7.22;;;14.40;95.20;;;;;;6182792;28;20062;-81
2023/06/17 04:24:55;;;;;;;8.88;7.75;;;14.90;94.50;;;;;;6183670;28;20130;-81
2023/06/17 04:27:58;;;;;;;7.85;7.00;;;15.40;93.60;;;;;;6183379;28;20058;-80
2023/06/17 04:31:02;;;;;;;10.85;7.55;;;15.60;92.60;;;;;;6181981;28;20067;-81
2023/06/17 04:34:05;;;;;;;8.27;7.47;;;15.70;92.90;;;;;;6185757;28;20049;-81
2023/06/17 04:37:08;;;;;;;8.60;7.07;;;16.10;92.50;;;;;;6186191;28;20050;-79
2023/06/17 04:40:12;;;;;;;7.28;6.57;;;16.40;91.90;;;;;;6181967;28;20054;-80
2023/06/17 04:43:13;;;;;;;7.85;6.22;;;16.40;91.30;;;;;;6185786;28;20042;-80
2023/06/17 04:46:17;;;;;;;9.15;5.93;;;16.40;91.50;;;;;;6186922;28;20057;-81
2023/06/17 04:49:19;;;;;;;7.82;7.13;;;16.50;91.40;;;;;;6181011;28;20061;-79
2023/06/17 04:52:24;;;;;;;7.90;7.20;;;16.60;91.70;;;;;;6186339;28;20132;-80
2023/06/17 04:55:26;;;;;;;9.10;6.78;;;16.60;92.10;;;;;;6184879;28;20058;-80
2023/06/17 04:58:27;;;;;;;7.65;6.80;;;16.90;92.60;;;;;;6184236;28;20498;-80
2023/06/17 05:01:30;;;;;;;6.47;5.82;;;17.60;92.20;;;;;;6183910;28;20045;-79
2023/06/17 05:04:32;;;;;;;7.60;5.78;;;18.50;90.90;;;;;;6185593;28;20050;-79
2023/06/17 05:07:34;;;;;;;6.63;5.97;;;19.40;88.50;;;;;;6184064;28;20047;-80
2023/06/17 05:10:36;;;;;;;7.05;6.35;;;20.10;84.90;;;;;;6189906;28;20070;-80
2023/06/17 05:13:39;;;;;;;8.48;5.90;;;20.40;81.60;;;;;;6184355;28;20061;-80
2023/06/17 05:16:42;;;;;;;7.97;6.07;;;20.60;79.40;;;;;;6181564;28;20047;-80
2023/06/17 05:19:44;;;;;;;7.93;7.20;;;20.60;78.10;;;;;;6188403;28;20042;-80
2023/06/17 05:22:45;;;;;;;11.02;8.45;;;20.80;77.00;;;;;;6189836;28;20042;-81
2023/06/17 05:25:47;;;;;;;7.00;6.40;;;20.90;76.10;;;;;;6188933;28;20050;-81
2023/06/17 05:28:49;;;;;;;7.72;6.32;;;21.20;75.20;;;;;;6186972;28;20050;-80
2023/06/17 05:31:52;;;;;;;7.22;6.53;;;21.70;73.80;;;;;;6189513;28;20050;-80
2023/06/17 05:34:54;;;;;;;7.10;6.40;;;22.10;72.60;;;;;;6188662;28;20042;-79
2023/06/17 05:37:55;;;;;;;8.73;7.25;;;22.60;71.40;;;;;;6189969;28;20050;-81
2023/06/17 05:40:58;;;;;;;11.02;6.68;;;23.10;70.00;;;;;;6191107;28;20071;-80
2023/06/17 05:43:59;;;;;;;12.93;8.05;;;23.50;68.50;;;;;;6190023;28;20057;-80
2023/06/17 05:47:02;;;;;;;9.15;8.25;;;23.80;67.60;;;;;;6191369;28;20039;-80
2023/06/17 05:50:05;;;;;;;9.98;7.70;;;24.00;66.60;;;;;;6186012;28;20050;-78
2023/06/17 05:53:06;;;;;;;7.85;7.15;;;24.30;66.60;;;;;;6190447;28;20054;-78
2023/06/17 05:56:09;;;;;;;7.35;6.57;;;24.70;65.90;;;;;;6194624;28;20050;-82
2023/06/17 05:59:11;;;;;;;8.75;7.95;;;24.80;65.00;;;;;;6197173;28;20505;-81
2023/06/17 06:02:14;;;;;;;9.15;8.20;;;25.30;64.30;;;;;;6200014;28;20046;-81
2023/06/17 06:05:16;;;;;;;7.97;7.15;;;26.00;62.90;;;;;;6197441;28;20050;-79
2023/06/17 06:08:18;;;;;;;8.40;6.15;;;27.00;60.70;;;;;;6196375;28;20055;-80
2023/06/17 06:11:19;;;;;;;8.80;6.95;;;27.80;57.80;;;;;;6198184;28;20050;-81
2023/06/17 06:14:21;;;;;;;8.20;6.55;;;28.30;55.80;;;;;;6198080;28;20058;-82
2023/06/17 06:17:24;;;;;;;7.07;6.35;;;28.80;54.30;;;;;;6197524;28;20066;-80
2023/06/17 06:20:27;;;;;;;8.23;7.43;;;29.00;52.70;;;;;;6198291;28;20069;-80
2023/06/17 06:23:28;;;;;;;12.30;6.85;;;29.20;52.30;;;;;;6195537;28;20039;-81
2023/06/17 06:26:30;;;;;;;7.75;6.90;;;29.40;51.20;;;;;;6194493;28;20386;-81
2023/06/17 06:29:32;;;;;;;8.75;6.65;;;29.50;50.70;;;;;;6177151;28;20050;-81
2023/06/17 06:32:35;;;;;;;7.55;6.55;;;29.90;50.10;;;;;;6171227;28;20054;-79
2023/06/17 06:35:36;;;;;;;7.53;6.70;;;29.90;49.00;;;;;;6171010;28;20050;-81
2023/06/17 06:38:38;;;;;;;8.77;6.45;;;29.20;49.00;;;;;;6172155;28;20050;-83
2023/06/17 06:41:40;;;;;;;9.70;6.65;;;28.60;49.40;;;;;;6174394;28;20046;-82
2023/06/17 06:44:41;;;;;;;8.38;6.18;;;27.70;49.70;;;;;;6173621;28;20070;-80
2023/06/17 06:47:44;;;;;;;7.55;6.35;;;27.10;50.50;;;;;;6173199;28;20046;-81
2023/06/17 06:50:46;;;;;;;11.55;5.60;;;26.60;51.00;;;;;;6174101;28;20061;-85
2023/06/17 06:53:48;;;;;;;9.70;6.57;;;26.30;51.40;;;;;;6171395;28;20068;-82
2023/06/17 06:56:51;;;;;;;13.18;8.13;;;26.00;51.80;;;;;;6175446;28;20070;-82
2023/06/17 06:59:52;;;;;;;7.45;6.75;;;25.60;52.30;;;;;;6175302;28;20049;-82
2023/06/17 07:02:56;;;;;;;7.50;6.28;;;25.30;53.10;;;;;;6173216;28;20061;-79
2023/06/17 07:05:57;;;;;;;7.43;5.88;;;25.30;53.80;;;;;;6171439;28;20046;-79
2023/06/17 07:08:59;;;;;;;7.30;5.93;;;25.30;53.80;;;;;;6165483;28;20069;-79
2023/06/17 07:12:01;;;;;;;8.32;5.85;;;25.20;53.70;;;;;;6170926;28;20046;-79
2023/06/17 07:15:03;;;;;;;6.97;5.90;;;25.20;53.50;;;;;;6169513;28;20050;-79
2023/06/17 07:18:06;;;;;;;10.32;6.88;;;25.20;53.00;;;;;;6176641;28;20050;-79
2023/06/17 07:21:10;;;;;;;8.73;6.20;;;25.30;53.80;;;;;;6198552;28;20049;-79
2023/06/17 07:24:11;;;;;;;7.75;6.70;;;25.30;53.00;;;;;;6193919;28;20413;-78
2023/06/17 07:27:13;;;;;;;8.30;6.70;;;25.30;53.00;;;;;;6192167;28;20046;-78
2023/06/17 07:30:15;;;;;;;10.05;6.43;;;25.30;53.10;;;;;;6202922;28;20046;-79
2023/06/17 07:33:18;;;;;;;7.07;6.40;;;25.50;53.10;;;;;;6193680;28;20073;-80
2023/06/17 07:36:20;;;;;;;7.28;6.05;;;25.70;52.60;;;;;;6197998;28;20057;-78
2023/06/17 07:39:23;;;;;;;8.10;6.03;;;25.90;52.30;;;;;;6198894;28;20122;-78
2023/06/17 07:42:25;;;;;;;7.97;6.70;;;26.10;52.30;;;;;;6194559;28;20038;-80
2023/06/17 07:45:27;;;;;;;8.57;6.40;;;26.30;52.10;;;;;;6196990;28;20493;-79
2023/06/17 07:48:31;;;;;;;7.00;5.28;;;26.30;51.60;;;;;;6190908;28;20054;-78
2023/06/17 07:51:33;;;;;;;7.95;6.20;;;26.40;51.40;;;;;;6201971;28;20058;-78
2023/06/17 07:54:35;;;;;;;9.82;5.40;;;26.50;51.30;;;;;;6196689;28;20053;-78
2023/06/17 07:57:37;;;;;;;7.50;6.90;;;26.70;51.10;;;;;;6192888;28;20057;-78
2023/06/17 08:00:39;;;;;;;9.05;6.18;;;26.80;50.80;;;;;;6196045;28;20484;-79
2023/06/17 08:03:42;;;;;;;6.72;5.78;;;27.00;50.70;;;;;;6195475;28;20441;-79
2023/06/17 08:06:45;;;;;;;8.23;6.97;;;27.10;50.10;;;;;;6195840;28;20057;-79
2023/06/17 08:09:47;;;;;;;8.57;5.18;;;27.20;49.90;;;;;;6191580;28;21426;-78
2023/06/17 08:12:48;;;;;;;10.02;5.88;;;27.30;49.60;;;;;;6187579;28;20058;-79
2023/06/17 08:15:51;;;;;;;6.60;6.05;;;27.40;49.60;;;;;;6196585;28;20046;-78
2023/06/17 08:18:54;;;;;;;7.97;7.20;;;27.40;49.70;;;;;;6190737;28;20205;-78
2023/06/17 08:21:56;;;;;;;7.63;5.97;;;27.70;49.70;;;;;;6199238;28;20424;-78
2023/06/17 08:24:58;;;;;;;7.53;6.30;;;27.80;49.50;;;;;;6194898;28;20068;-78
2023/06/17 08:27:59;;;;;;;7.57;6.00;;;27.90;49.40;;;;;;6199882;28;20112;-79
2023/06/17 08:31:01;;;;;;;6.65;5.95;;;28.00;49.20;;;;;;6199481;28;20058;-78
2023/06/17 08:34:05;;;;;;;8.50;5.80;;;28.20;48.90;;;;;;6190515;28;20058;-78
2023/06/17 08:37:07;;;;;;;6.55;5.95;;;28.30;48.80;;;;;;6188789;28;20077;-79
2023/06/17 08:40:09;;;;;;;5.78;5.28;;;28.50;48.40;;;;;;6189592;28;20046;-79
2023/06/17 08:43:12;;;;;;;6.40;5.90;;;28.50;48.00;;;;;;6187823;28;20192;-78
2023/06/17 08:46:14;;;;;;;6.18;4.75;;;28.60;47.80;;;;;;6191266;28;20062;-78
2023/06/17 08:49:18;;;;;;;5.43;5.03;;;28.80;47.50;;;;;;6186456;28;20536;-78
2023/06/17 08:52:21;;;;;;;7.00;6.22;;;29.00;46.80;;;;;;6183552;28;20054;-79
2023/06/17 08:55:22;;;;;;;7.53;5.95;;;29.00;46.60;;;;;;6192742;28;20046;-78
2023/06/17 08:58:26;;;;;;;7.00;6.07;;;29.20;46.40;;;;;;6187581;28;20065;-78
2023/06/17 09:01:28;;;;;;;6.95;6.35;;;29.20;46.10;;;;;;6191071;28;20051;-80
2023/06/17 09:04:32;;;;;;;6.47;4.53;;;29.30;46.10;;;;;;6190252;28;20361;-77
2023/06/17 09:07:33;;;;;;;9.40;5.47;;;29.50;45.80;;;;;;6194629;28;20046;-79
2023/06/17 09:10:45;;;;;;;7.65;5.53;;;29.60;45.60;;;;;;6193587;28;20051;-80
2023/06/17 09:13:50;;;;;;;6.07;5.57;;;29.70;45.30;;;;;;6197647;28;20501;-80
2023/06/17 09:16:54;;;;;;;6.30;5.38;;;29.80;45.20;;;;;;6200126;28;20050;-80
2023/06/17 09:19:57;;;;;;;11.27;6.65;;;30.00;45.20;;;;;;6196534;28;20095;-80
2023/06/17 09:22:59;;;;;;;5.53;5.03;;;30.10;44.90;;;;;;6199670;28;20038;-80
2023/06/17 09:26:01;;;;;;;5.85;5.22;;;30.30;44.60;;;;;;6208328;28;20350;-79
2023/06/17 09:29:05;;;;;;;5.63;5.10;;;30.40;44.60;;;;;;6209802;28;20068;-81
2023/06/17 09:32:08;;;;;;;8.00;4.88;;;30.50;44.70;;;;;;6213412;28;20195;-80
2023/06/17 09:35:14;;;;;;;9.00;5.45;;;30.60;45.40;;;;;;6211359;28;20056;-80
2023/06/17 09:38:18;;;;;;;5.60;5.18;;;30.50;44.50;;;;;;6209775;28;20053;-79
2023/06/17 09:41:20;;;;;;;7.00;5.32;;;30.60;44.50;;;;;;6202503;28;20050;-80
2023/06/17 09:44:22;;;;;;;10.52;6.32;;;30.70;44.10;;;;;;6202192;28;20184;-78
2023/06/17 09:47:32;;;;;;;6.18;5.13;;;30.90;43.90;;;;;;6199211;28;20155;-78
2023/06/17 09:50:36;;;;;;;8.52;5.50;;;30.90;43.40;;;;;;6191712;28;20118;-80
2023/06/17 09:53:39;;;;;;;6.50;5.93;;;31.00;43.30;;;;;;6191369;28;20768;-80
2023/06/17 09:56:43;;;;;;;7.47;6.00;;;31.10;42.90;;;;;;6202314;28;20568;-80
2023/06/17 09:59:48;;;;;;;11.35;7.30;;;31.20;42.70;;;;;;6200455;28;20053;-80
2023/06/17 10:02:50;;;;;;;5.93;5.35;;;31.20;42.20;;;;;;6204751;28;20051;-79
2023/06/17 10:06:01;;;;;;;6.60;5.95;;;30.70;42.00;;;;;;6202198;28;20053;-80
2023/06/17 10:09:06;;;;;;;5.45;4.25;;;30.70;41.70;;;;;;6202985;28;20050;-80
2023/06/17 10:12:10;;;;;;;5.63;5.13;;;30.40;41.30;;;;;;6200153;28;20486;-80
2023/06/17 10:15:13;;;;;;;4.55;4.15;;;30.00;40.80;;;;;;6201977;28;20066;-81
2023/06/17 10:18:16;;;;;;;6.38;5.38;;;30.10;40.20;;;;;;6209024;28;20132;-81
2023/06/17 10:21:22;;;;;;;9.63;4.65;;;30.50;40.00;;;;;;6206245;28;20045;-81
2023/06/17 10:24:25;;;;;;;6.47;5.85;;;30.80;39.50;;;;;;6202333;28;20130;-80
2023/06/17 10:27:29;;;;;;;6.20;4.90;;;30.90;39.00;;;;;;6190558;28;20101;-79
2023/06/17 10:30:35;;;;;;;5.10;4.53;;;31.30;38.70;;;;;;6187142;28;20058;-78
2023/06/17 10:33:46;;;;;;;5.30;4.90;;;31.60;38.00;;;;;;6190311;28;20046;-78
2023/06/17 10:36:51;;;;;;;5.50;5.00;;;31.90;38.60;;;;;;6195615;28;20051;-78
2023/06/17 10:39:53;;;;;;;7.25;4.32;;;32.30;38.10;;;;;;6188649;28;20050;-80
2023/06/17 10:42:58;;;;;;;4.68;4.15;;;32.60;37.40;;;;;;6191323;28;20054;-80
2023/06/17 10:45:59;;;;;;;4.13;3.72;;;33.00;36.60;;;;;;6189335;28;20050;-78
2023/06/17 10:49:01;;;;;;;7.35;3.58;;;33.10;35.90;;;;;;6184932;28;20062;-78
2023/06/17 10:52:05;;;;;;;5.80;3.75;;;33.30;35.00;;;;;;6188956;28;20062;-78
2023/06/17 10:55:10;;;;;;;4.50;3.67;;;33.60;34.10;;;;;;6185498;28;20336;-77
2023/06/17 10:58:11;;;;;;;4.10;3.80;;;33.70;33.10;;;;;;6185541;28;20111;-78
2023/06/17 11:01:14;;;;;;;6.05;3.50;;;33.60;32.60;;;;;;6188824;28;20045;-78
2023/06/17 11:04:15;;;;;;;3.88;3.53;;;33.80;32.50;;;;;;6185886;28;20156;-77
2023/06/17 11:07:26;;;;;;;4.22;3.10;;;34.10;32.70;;;;;;6188129;28;20413;-76
2023/06/17 11:10:28;;;;;;;6.47;4.10;;;34.50;32.40;;;;;;6184159;28;20058;-79
2023/06/17 11:13:30;;;;;;;3.90;3.60;;;34.50;32.10;;;;;;6185687;28;20046;-78
2023/06/17 11:16:33;;;;;;;5.28;3.72;;;34.70;32.10;;;;;;6191042;28;20061;-78
2023/06/17 11:19:34;;;;;;;5.72;3.42;;;34.70;31.90;;;;;;6181343;28;20057;-77
2023/06/17 11:22:40;;;;;;;3.90;3.60;;;34.70;32.00;;;;;;6184784;28;20104;-78
2023/06/17 11:25:42;;;;;;;6.75;4.13;;;34.90;32.10;;;;;;6185971;28;20053;-77
2023/06/17 11:28:44;;;;;;;3.47;3.17;;;35.10;32.20;;;;;;6185927;28;20046;-78
2023/06/17 11:31:46;;;;;;;3.95;3.63;;;35.20;32.30;;;;;;6184787;28;20426;-78
2023/06/17 11:34:49;;;;;;;6.15;4.22;;;35.10;31.30;;;;;;6187299;28;20039;-78
2023/06/17 11:37:53;;;;;;;4.90;3.30;;;34.90;31.20;;;;;;6189350;28;20050;-78
2023/06/17 11:40:56;;;;;;;5.40;4.60;;;34.90;31.10;;;;;;6186599;28;20061;-77
2023/06/17 11:43:58;;;;;;;6.13;3.42;;;34.70;31.20;;;;;;6187760;28;20066;-78
2023/06/17 11:47:04;;;;;;;4.65;4.07;;;34.80;31.60;;;;;;6187063;28;20050;-79
2023/06/17 11:50:06;;;;;;;4.60;4.20;;;35.20;31.90;;;;;;6186264;28;20049;-78
2023/06/17 11:53:09;;;;;;;6.03;5.53;;;35.50;32.20;;;;;;6185412;28;20066;-78
2023/06/17 11:56:12;;;;;;;4.70;4.18;;;35.70;31.90;;;;;;6193032;28;20047;-78
2023/06/17 11:59:14;;;;;;;6.80;4.13;;;35.80;32.20;;;;;;6186330;28;20551;-78
2023/06/17 12:02:16;;;;;;;6.78;4.15;;;36.00;32.10;;;;;;6186039;28;20051;-78
2023/06/17 12:05:18;;;;;;;5.53;4.00;;;35.80;31.40;;;;;;6199353;28;20428;-78
2023/06/17 12:08:21;;;;;;;12.77;4.65;;;35.40;31.70;;;;;;6199649;28;20058;-78
2023/06/17 12:11:25;;;;;;;6.13;4.57;;;35.40;31.50;;;;;;6197770;28;20042;-78
2023/06/17 12:14:27;;;;;;;5.03;4.53;;;35.50;31.90;;;;;;6195625;28;20035;-78
2023/06/17 12:17:36;;;;;;;7.63;4.35;;;35.70;31.80;;;;;;6202872;28;20498;-78
2023/06/17 12:20:38;;;;;;;7.10;4.07;;;35.80;31.60;;;;;;6200899;28;20101;-78
2023/06/17 12:23:41;;;;;;;8.20;4.10;;;36.00;31.30;;;;;;6198176;28;20442;-79
2023/06/17 12:26:43;;;;;;;5.43;4.68;;;36.30;31.10;;;;;;6193708;28;20042;-78
2023/06/17 12:29:45;;;;;;;5.07;3.70;;;36.50;31.00;;;;;;6193834;28;20517;-79
2023/06/17 12:32:46;;;;;;;4.85;4.32;;;36.50;31.10;;;;;;6187527;28;20050;-78
2023/06/17 12:35:50;;;;;;;5.53;4.20;;;36.60;31.10;;;;;;6187953;28;20053;-79
2023/06/17 12:38:53;;;;;;;4.93;4.53;;;36.80;30.80;;;;;;6198140;28;20065;-79
2023/06/17 12:41:55;;;;;;;4.53;4.22;;;36.70;30.70;;;;;;6191066;28;20053;-79
2023/06/17 12:44:57;;;;;;;6.88;4.20;;;36.50;30.60;;;;;;6191305;28;20053;-78
2023/06/17 12:47:58;;;;;;;6.72;3.92;;;36.40;30.60;;;;;;6191543;28;20046;-78
2023/06/17 12:51:00;;;;;;;4.63;4.22;;;36.60;30.70;;;;;;6194339;28;20049;-79
2023/06/17 12:54:04;;;;;;;5.00;4.40;;;36.70;30.50;;;;;;6194323;28;20394;-79
2023/06/17 12:57:07;;;;;;;5.20;4.70;;;36.70;30.60;;;;;;6190050;28;20053;-78
2023/06/17 13:00:12;;;;;;;4.70;4.28;;;36.70;30.90;;;;;;6199277;28;20161;-78
2023/06/17 13:03:13;;;;;;;10.32;4.55;;;36.60;30.70;;;;;;6194388;28;20053;-78
2023/06/17 13:06:15;;;;;;;4.57;3.95;;;36.60;31.00;;;;;;6191527;28;20188;-78
2023/06/17 13:09:18;;;;;;;7.43;6.72;;;36.70;30.80;;;;;;6188203;28;20054;-79
2023/06/17 13:12:20;;;;;;;9.10;5.47;;;36.80;31.00;;;;;;6196607;28;20062;-78
2023/06/17 13:15:22;;;;;;;8.25;4.45;;;37.00;30.80;;;;;;6191240;28;20133;-80
2023/06/17 13:18:23;;;;;;;5.03;4.63;;;37.30;30.40;;;;;;6188548;28;20394;-79
2023/06/17 13:21:25;;;;;;;10.35;5.88;;;37.50;30.30;;;;;;6190080;28;20050;-79
2023/06/17 13:24:28;;;;;;;4.95;4.55;;;37.50;30.00;;;;;;6190923;28;20050;-79
2023/06/17 13:27:31;;;;;;;5.25;4.68;;;37.70;30.30;;;;;;6187598;28;20061;-78
2023/06/17 13:30:33;;;;;;;8.63;4.63;;;37.60;30.30;;;;;;6186759;28;20066;-80
2023/06/17 13:33:34;;;;;;;11.13;4.80;;;37.50;30.30;;;;;;6189186;28;20049;-79
2023/06/17 13:36:39;;;;;;;5.55;4.82;;;37.50;30.60;;;;;;6185720;28;20065;-79
2023/06/17 13:39:43;;;;;;;7.75;4.70;;;37.70;30.20;;;;;;6198483;28;20136;-78
2023/06/17 13:42:45;;;;;;;4.50;4.10;;;37.70;30.00;;;;;;6196068;28;20177;-81
2023/06/17 13:45:47;;;;;;;7.07;4.93;;;37.60;30.00;;;;;;6192944;28;20042;-79
2023/06/17 13:48:50;;;;;;;5.38;4.95;;;37.40;30.30;;;;;;6193945;28;20058;-79
2023/06/17 13:51:52;;;;;;;5.88;5.07;;;37.40;30.20;;;;;;6192770;28;20054;-78
2023/06/17 13:54:55;;;;;;;6.45;4.50;;;37.60;30.60;;;;;;6196054;28;20053;-79
2023/06/17 13:57:57;;;;;;;7.00;5.30;;;37.70;30.40;;;;;;6192334;28;20418;-79
2023/06/17 14:00:59;;;;;;;5.75;5.25;;;38.10;30.10;;;;;;6195622;28;20061;-79
2023/06/17 14:04:01;;;;;;;5.65;4.70;;;38.20;30.10;;;;;;6197651;28;20064;-79
2023/06/17 14:07:03;;;;;;;6.38;4.38;;;38.00;29.80;;;;;;6195003;28;20769;-78
2023/06/17 14:10:07;;;;;;;4.43;4.03;;;37.90;29.90;;;;;;6197175;28;20046;-79
2023/06/17 14:13:09;;;;;;;7.72;4.80;;;37.80;30.30;;;;;;6194853;28;20042;-78
2023/06/17 14:16:11;;;;;;;7.28;4.78;;;37.50;29.80;;;;;;6198753;28;20062;-79
2023/06/17 14:19:12;;;;;;;8.73;5.03;;;37.40;30.10;;;;;;6198112;28;20057;-79
2023/06/17 14:22:14;;;;;;;5.85;4.65;;;37.30;30.40;;;;;;6192525;28;20050;-79
2023/06/17 14:25:17;;;;;;;6.78;5.40;;;37.40;30.90;;;;;;6197679;28;20064;-79
2023/06/17 14:28:19;;;;;;;4.53;3.75;;;37.50;30.00;;;;;;6192963;28;20054;-79
2023/06/17 14:31:21;;;;;;;9.30;5.10;;;37.50;30.10;;;;;;6192229;28;20038;-79
2023/06/17 14:34:23;;;;;;;7.32;5.15;;;37.30;30.30;;;;;;6198861;28;20062;-79
2023/06/17 14:37:24;;;;;;;6.18;5.68;;;37.20;30.10;;;;;;6201974;28;20049;-79
2023/06/17 14:40:28;;;;;;;7.75;5.50;;;37.20;29.90;;;;;;6204381;28;20054;-79
2023/06/17 14:43:30;;;;;;;5.03;4.53;;;37.20;30.00;;;;;;6202002;28;20050;-79
2023/06/17 14:46:32;;;;;;;5.90;5.05;;;37.10;29.90;;;;;;6203430;28;20056;-79
2023/06/17 14:49:34;;;;;;;5.53;5.03;;;36.90;29.90;;;;;;6204852;28;20065;-79
2023/06/17 14:52:35;;;;;;;5.60;5.10;;;36.80;29.90;;;;;;6203938;28;20046;-78
2023/06/17 14:55:38;;;;;;;10.63;5.70;;;36.90;29.80;;;;;;6203844;28;20038;-78
2023/06/17 14:58:40;;;;;;;6.25;5.65;;;37.10;29.90;;;;;;6200251;28;20046;-79
2023/06/17 15:01:42;;;;;;;6.07;5.25;;;36.70;29.90;;;;;;6205969;28;20049;-79
2023/06/17 15:04:43;;;;;;;6.13;4.88;;;36.30;30.00;;;;;;6206611;28;20054;-80
2023/06/17 15:07:45;;;;;;;5.47;4.40;;;35.80;29.90;;;;;;6201466;28;20053;-79
2023/06/17 15:10:49;;;;;;;6.07;5.43;;;35.30;30.40;;;;;;6201900;28;20066;-79
2023/06/17 15:13:50;;;;;;;6.20;5.25;;;35.30;30.70;;;;;;6198825;28;20497;-80
2023/06/17 15:16:52;;;;;;;5.88;5.38;;;35.30;30.80;;;;;;6200753;28;20046;-78
2023/06/17 15:19:54;;;;;;;6.35;4.93;;;35.20;31.10;;;;;;6198951;28;20362;-83
2023/06/17 15:22:55;;;;;;;7.22;5.40;;;35.40;31.20;;;;;;6196454;28;20822;-81
2023/06/17 15:25:59;;;;;;;7.50;5.82;;;35.50;31.10;;;;;;6195380;28;20058;-79
2023/06/17 15:29:16;;;;;;;6.60;5.93;;;35.50;30.90;;;;;;6191824;28;20412;-81
2023/06/17 15:32:18;;;;;;;6.90;6.20;;;35.50;30.70;;;;;;6197500;28;20058;-77
2023/06/17 15:35:25;;;;;;;9.02;5.55;;;35.00;31.00;;;;;;6202672;28;20297;-79
2023/06/17 15:38:26;;;;;;;;;;;35.00;31.30;;;;;;6196326;28;20042;-81
2023/06/17 15:41:29;;;;;;;7.80;5.53;;;35.10;31.10;;;;;;6204162;28;19928;-80
2023/06/17 15:44:31;;;;;;;6.95;5.68;;;35.00;31.40;;;;;;6202272;28;20046;-82
2023/06/17 15:47:33;;;;;;;6.25;5.30;;;35.30;31.40;;;;;;6200421;28;20053;-81
2023/06/17 15:50:34;;;;;;;5.63;5.13;;;35.40;31.20;;;;;;6197861;28;20058;-80
2023/06/17 15:53:36;;;;;;;7.55;6.00;;;35.40;31.00;;;;;;6200642;28;20648;-79
2023/06/17 15:56:40;;;;;;;7.07;5.57;;;35.30;31.10;;;;;;6211683;28;20058;-81
2023/06/17 15:59:42;;;;;;;6.45;5.50;;;35.00;31.00;;;;;;6215514;28;20107;-81